Time;durP1;ratioP1;P1;durP2;ratioP2;P2;SDS_P1;SDS_P2;PMS_P1;PMS_P2;Temp;Humidity;BMP_temperature;BMP_pressure;BME280_temperature;BME280_humidity;BME280_pressure;Samples;Min_cycle;Max_cycle;Signal;HPM_P1;HPM_P2
2021/12/28 00:00:09;;;;;;;55.30;27.20;;;;;;;0.54;99.83;100033.47;5058953;28;20447;-73
2021/12/28 00:02:34;;;;;;;54.80;29.33;;;;;;;0.57;99.82;100041.22;5063518;28;20041;-74
2021/12/28 00:05:00;;;;;;;52.05;26.45;;;;;;;0.56;99.97;100036.03;5063470;28;20051;-70
2021/12/28 00:07:25;;;;;;;49.80;26.63;;;;;;;0.54;99.51;100033.47;5068590;28;20040;-73
2021/12/28 00:09:51;;;;;;;50.13;26.20;;;;;;;0.57;100.00;100038.59;5061573;28;20017;-72
2021/12/28 00:12:16;;;;;;;52.95;28.60;;;;;;;0.56;100.00;100026.34;5044299;28;20099;-73
2021/12/28 00:14:51;;;;;;;54.53;29.05;;;;;;;0.53;100.00;100023.84;5059858;28;20120;-73
2021/12/28 00:20:01;;;;;;;59.22;27.10;;;;;;;0.58;100.00;100028.91;5069410;28;20032;-73
2021/12/28 00:22:26;;;;;;;51.38;27.67;;;;;;;0.57;99.79;100029.81;5063653;28;20072;-73
2021/12/28 00:24:52;;;;;;;53.03;27.08;;;;;;;0.50;99.61;100020.50;5061761;28;20478;-72
2021/12/28 00:27:18;;;;;;;53.70;27.42;;;;;;;0.58;100.00;100035.00;5062689;28;20017;-72
2021/12/28 00:29:43;;;;;;;51.47;27.92;;;;;;;0.57;100.00;100030.66;5060196;28;20397;-72
2021/12/28 00:32:09;;;;;;;48.85;26.85;;;;;;;0.57;100.00;100025.41;5061508;28;20037;-72
2021/12/28 00:34:35;;;;;;;51.25;25.92;;;;;;;0.61;100.00;100026.09;5063156;28;20029;-73
2021/12/28 00:37:01;;;;;;;47.90;27.52;;;;;;;0.58;100.00;100026.25;5045391;28;20029;-72
2021/12/28 00:39:26;;;;;;;48.72;25.98;;;;;;;0.58;100.00;100028.91;5065676;28;20075;-72
2021/12/28 00:41:52;;;;;;;53.50;27.30;;;;;;;0.59;100.00;100027.97;5065944;28;20036;-73
2021/12/28 00:44:18;;;;;;;51.35;28.13;;;;;;;0.53;100.00;100010.66;5065260;28;20507;-71
2021/12/28 00:46:44;;;;;;;52.90;28.17;;;;;;;0.52;100.00;100008.97;5065298;28;20094;-72
2021/12/28 00:49:10;;;;;;;51.45;27.75;;;;;;;0.60;100.00;100025.25;5062962;28;20107;-73
2021/12/28 00:51:37;;;;;;;53.47;26.90;;;;;;;0.59;100.00;100034.09;5063132;28;20087;-72
2021/12/28 00:54:03;;;;;;;52.20;26.77;;;;;;;0.62;100.00;100038.34;5063943;28;20473;-73
2021/12/28 00:56:29;;;;;;;52.17;26.25;;;;;;;0.62;100.00;100035.72;5061463;28;20454;-73
2021/12/28 00:58:54;;;;;;;54.95;27.55;;;;;;;0.61;100.00;100041.94;5056480;28;20040;-65
2021/12/28 01:01:20;;;;;;;53.80;28.92;;;;;;;0.61;100.00;100042.75;5061565;28;20029;-65
2021/12/28 01:03:45;;;;;;;55.53;29.05;;;;;;;0.60;100.00;100040.19;5071362;28;20055;-66
2021/12/28 01:06:11;;;;;;;57.13;31.08;;;;;;;0.58;100.00;100037.66;5071181;28;20149;-66
2021/12/28 01:08:37;;;;;;;56.60;28.38;;;;;;;0.59;100.00;100033.22;5071206;28;20042;-66
2021/12/28 01:11:04;;;;;;;61.03;29.83;;;;;;;0.61;100.00;100037.47;5071236;28;20033;-65
2021/12/28 01:13:29;;;;;;;58.42;30.23;;;;;;;0.56;100.00;100028.97;5071283;28;20030;-66
2021/12/28 01:15:55;;;;;;;57.78;29.40;;;;;;;0.56;100.00;100031.63;5071328;28;20024;-66
2021/12/28 01:18:21;;;;;;;57.55;29.38;;;;;;;0.58;100.00;100027.09;5053184;28;20046;-65
2021/12/28 01:20:47;;;;;;;60.78;29.23;;;;;;;0.58;100.00;100032.38;5050950;28;20031;-66
2021/12/28 01:23:13;;;;;;;65.95;30.75;;;;;;;0.55;100.00;100029.06;5050932;28;20036;-65
2021/12/28 01:25:39;;;;;;;63.20;30.83;;;;;;;0.57;100.00;100029.81;5051072;28;20083;-65
2021/12/28 01:28:06;;;;;;;64.43;30.83;;;;;;;0.55;100.00;100021.13;5069090;28;20032;-65
2021/12/28 01:30:33;;;;;;;57.53;29.95;;;;;;;0.49;100.00;100001.22;5052959;28;20055;-65
2021/12/28 01:33:00;;;;;;;62.92;30.77;;;;;;;0.54;100.00;99999.16;5056483;28;20029;-65
2021/12/28 01:35:27;;;;;;;63.42;32.03;;;;;;;0.58;100.00;100005.16;5050931;28;20032;-65
2021/12/28 01:37:53;;;;;;;70.45;33.08;;;;;;;0.60;100.00;99998.84;5032666;28;20037;-65
2021/12/28 01:40:23;;;;;;;67.65;32.17;;;;;;;0.60;100.00;100001.50;5050756;28;20440;-66
2021/12/28 01:42:57;;;;;;;64.55;31.42;;;;;;;0.61;100.00;99999.72;5050576;28;20386;-65
2021/12/28 01:45:48;;;;;;;67.57;32.50;;;;;;;0.59;100.00;99991.88;5051054;28;20020;-66
2021/12/28 01:48:38;;;;;;;71.20;33.65;;;;;;;0.62;100.00;100002.28;5070426;28;20036;-65
2021/12/28 01:51:11;;;;;;;67.75;30.52;;;;;;;0.57;100.00;99990.22;5070501;28;20044;-65
2021/12/28 01:53:39;;;;;;;76.53;31.60;;;;;;;0.59;100.00;99991.88;5056453;28;20056;-66
2021/12/28 01:56:15;;;;;;;69.05;31.27;;;;;;;0.55;100.00;99987.66;5050447;28;20274;-66
2021/12/28 01:58:42;;;;;;;68.32;30.52;;;;;;;0.60;100.00;99993.56;5050211;28;20108;-66
2021/12/28 02:01:08;;;;;;;64.25;29.83;;;;;;;0.59;100.00;99991.88;5050385;28;20103;-66
2021/12/28 02:03:36;;;;;;;68.15;30.75;;;;;;;0.62;100.00;99999.63;5063723;28;20065;-66
2021/12/28 02:06:03;;;;;;;68.93;30.27;;;;;;;0.63;100.00;99990.78;5048833;28;20053;-65
2021/12/28 02:08:29;;;;;;;70.35;30.52;;;;;;;0.64;100.00;99997.75;5049801;28;20032;-72
2021/12/28 02:10:55;;;;;;;70.35;31.17;;;;;;;0.65;100.00;99991.56;5041491;28;20505;-73
2021/12/28 02:13:22;;;;;;;69.95;31.90;;;;;;;0.62;100.00;99981.16;5041533;28;20029;-72
2021/12/28 02:15:48;;;;;;;70.28;31.15;;;;;;;0.66;100.00;99984.47;5042467;28;20036;-72
2021/12/28 02:18:16;;;;;;;71.65;30.95;;;;;;;0.70;100.00;99992.16;5041459;28;20455;-73
2021/12/28 02:20:43;;;;;;;72.47;31.02;;;;;;;0.63;100.00;99980.22;5044181;28;20025;-71
2021/12/28 02:23:09;;;;;;;71.03;31.40;;;;;;;0.74;100.00;99990.22;5042363;28;20033;-73
2021/12/28 02:25:35;;;;;;;59.92;28.83;;;;;;;0.75;100.00;99995.41;5043609;28;20087;-73
2021/12/28 02:28:03;;;;;;;62.17;30.55;;;;;;;0.70;100.00;99984.25;5040359;28;20430;-72
2021/12/28 02:30:29;;;;;;;68.60;30.75;;;;;;;0.68;100.00;99995.81;5038919;28;20433;-72
2021/12/28 02:32:54;;;;;;;71.32;31.10;;;;;;;0.75;100.00;99992.78;5045146;28;20036;-72
2021/12/28 02:35:23;;;;;;;68.32;29.85;;;;;;;0.69;100.00;99981.69;5038336;28;20029;-73
2021/12/28 02:37:50;;;;;;;71.45;30.17;;;;;;;0.74;100.00;99985.78;5042917;28;20029;-72
2021/12/28 02:40:18;;;;;;;64.90;30.98;;;;;;;0.73;100.00;99978.81;5042099;28;20465;-73
2021/12/28 02:42:44;;;;;;;68.50;29.30;;;;;;;0.75;100.00;99976.94;5038025;28;20112;-73
2021/12/28 02:45:18;;;;;;;63.08;29.70;;;;;;;0.76;100.00;99969.84;5034538;28;20108;-73
2021/12/28 02:47:46;;;;;;;68.78;31.45;;;;;;;0.73;100.00;99968.25;5039339;28;20147;-73
2021/12/28 02:50:17;;;;;;;61.00;27.90;;;;;;;0.75;100.00;99982.22;5038227;28;20116;-73
2021/12/28 02:52:43;;;;;;;64.97;28.42;;;;;;;0.77;100.00;99985.63;5040948;28;20053;-73
2021/12/28 02:55:12;;;;;;;62.53;26.80;;;;;;;0.77;100.00;99976.88;5045869;28;20052;-72
2021/12/28 02:57:37;;;;;;;63.08;28.27;;;;;;;0.75;100.00;99970.81;5041992;28;20037;-72
2021/12/28 03:00:06;;;;;;;62.92;28.05;;;;;;;0.78;100.00;99971.50;5041416;28;20094;-73
2021/12/28 03:02:32;;;;;;;60.72;25.77;;;;;;;0.81;100.00;99967.84;5044287;28;20062;-73
2021/12/28 03:04:57;;;;;;;64.57;25.98;;;;;;;0.79;100.00;99962.63;5040288;28;20065;-72
2021/12/28 03:07:24;;;;;;;60.55;27.20;;;;;;;0.76;100.00;99957.53;5062583;28;20066;-73
2021/12/28 03:09:50;;;;;;;51.72;24.15;;;;;;;0.85;100.00;99969.38;5058198;28;20029;-72
2021/12/28 03:12:15;;;;;;;49.08;21.48;;;;;;;0.87;100.00;99964.88;5063649;28;20035;-73
2021/12/28 03:14:41;;;;;;;52.78;23.48;;;;;;;0.87;100.00;99957.78;5061366;28;20028;-71
2021/12/28 03:17:07;;;;;;;48.17;22.33;;;;;;;0.86;100.00;99965.78;5059904;28;20024;-73
2021/12/28 03:19:34;;;;;;;46.92;20.85;;;;;;;0.85;100.00;99961.44;5060747;28;20029;-73
2021/12/28 03:22:00;;;;;;;49.85;22.63;;;;;;;0.87;100.00;99962.22;5062887;28;20032;-73
2021/12/28 03:24:26;;;;;;;49.25;22.55;;;;;;;0.86;100.00;99958.72;5064738;28;20079;-73
2021/12/28 03:26:52;;;;;;;49.08;22.65;;;;;;;0.90;100.00;99968.19;5059899;28;20025;-72
2021/12/28 03:29:18;;;;;;;46.95;21.48;;;;;;;0.86;100.00;99958.72;5040828;28;20468;-72
2021/12/28 03:31:44;;;;;;;43.75;21.17;;;;;;;0.90;100.00;99965.53;5066520;28;20028;-73
2021/12/28 03:34:09;;;;;;;41.85;20.05;;;;;;;0.88;100.00;99956.00;5068400;28;20484;-72
2021/12/28 03:36:35;;;;;;;42.10;20.40;;;;;;;0.94;100.00;99964.47;5065379;28;20036;-73
2021/12/28 03:39:03;;;;;;;42.67;19.85;;;;;;;0.94;100.00;99963.59;5065471;28;20027;-73
2021/12/28 03:41:30;;;;;;;43.05;18.95;;;;;;;0.93;100.00;99954.00;5063738;28;20037;-73
2021/12/28 03:43:56;;;;;;;42.28;20.55;;;;;;;0.94;100.00;99951.25;5060880;28;20404;-73
2021/12/28 03:46:24;;;;;;;43.28;18.73;;;;;;;0.92;100.00;99952.25;5065204;28;20047;-72
2021/12/28 03:48:50;;;;;;;42.85;18.92;;;;;;;0.95;100.00;99952.97;5063745;28;20033;-73
2021/12/28 03:51:16;;;;;;;41.65;19.23;;;;;;;0.90;100.00;99943.59;5065325;28;20032;-72
2021/12/28 03:53:42;;;;;;;40.83;19.67;;;;;;;0.95;100.00;99946.81;5065278;28;20669;-73
2021/12/28 03:56:10;;;;;;;42.17;19.80;;;;;;;0.89;100.00;99945.38;5042657;28;20056;-72
2021/12/28 03:58:38;;;;;;;39.70;18.42;;;;;;;0.88;100.00;99941.03;5058065;28;20026;-72
2021/12/28 04:01:04;;;;;;;36.22;16.60;;;;;;;0.94;100.00;99945.13;5064499;28;20024;-72
2021/12/28 04:03:30;;;;;;;36.50;16.38;;;;;;;0.97;100.00;99953.72;5064183;28;20040;-72
2021/12/28 04:05:56;;;;;;;41.30;17.92;;;;;;;0.94;100.00;99948.63;5065427;28;20048;-72
2021/12/28 04:08:23;;;;;;;44.17;17.23;;;;;;;0.97;100.00;99964.25;5063616;28;20534;-73
2021/12/28 04:11:12;;;;;;;36.92;16.58;;;;;;;0.96;100.00;99962.56;5061125;28;20474;-72
2021/12/28 04:13:36;;;;;;;43.33;17.75;;;;;;;1.01;100.00;99972.88;5059235;28;20036;-72
2021/12/28 04:16:02;;;;;;;45.80;21.45;;;;;;;0.96;100.00;99951.16;5056204;28;20056;-72
2021/12/28 04:18:27;;;;;;;47.13;20.58;;;;;;;0.98;100.00;99957.22;5063371;28;20400;-73
2021/12/28 04:20:53;;;;;;;42.47;21.05;;;;;;;0.99;100.00;99964.19;5062267;28;20024;-72
2021/12/28 04:23:18;;;;;;;46.10;19.63;;;;;;;1.04;100.00;99983.28;5063766;28;20036;-71
2021/12/28 04:25:43;;;;;;;52.15;22.95;;;;;;;0.99;100.00;99958.91;5063091;28;20032;-72
2021/12/28 04:28:09;;;;;;;47.47;22.38;;;;;;;0.99;100.00;99957.13;5061181;28;20031;-72
2021/12/28 04:30:35;;;;;;;49.15;22.90;;;;;;;0.94;100.00;99947.75;5060749;28;20033;-72
2021/12/28 04:33:00;;;;;;;48.92;21.70;;;;;;;1.00;100.00;99956.19;5060183;28;20078;-72
2021/12/28 04:35:25;;;;;;;44.60;20.73;;;;;;;1.04;100.00;99962.16;5045660;28;20040;-73
2021/12/28 04:37:51;;;;;;;48.83;21.13;;;;;;;1.06;100.00;99962.94;5058402;28;20028;-72
2021/12/28 04:40:18;;;;;;;47.30;20.60;;;;;;;1.03;100.00;99956.03;5060750;28;20017;-73
2021/12/28 04:42:43;;;;;;;51.58;20.98;;;;;;;1.04;100.00;99963.03;5068757;28;20031;-72
2021/12/28 04:45:10;;;;;;;43.85;20.02;;;;;;;1.05;100.00;99958.56;5066308;28;20029;-72
2021/12/28 04:47:36;;;;;;;50.22;21.45;;;;;;;1.05;100.00;99953.28;5045765;28;20032;-72
2021/12/28 04:50:04;;;;;;;53.03;23.23;;;;;;;1.07;100.00;99952.28;5063722;28;20032;-73
2021/12/28 04:52:31;;;;;;;45.03;21.77;;;;;;;1.09;100.00;99954.81;5046681;28;20083;-72
2021/12/28 04:54:57;;;;;;;32.13;16.05;;;;;;;1.06;100.00;99947.09;5061419;28;20017;-72
2021/12/28 04:57:22;;;;;;;29.42;13.85;;;;;;;1.08;100.00;99953.13;5066021;28;20025;-72
2021/12/28 04:59:48;;;;;;;30.60;13.52;;;;;;;1.03;100.00;99944.63;5064952;28;20495;-72
2021/12/28 05:02:13;;;;;;;24.48;11.70;;;;;;;1.05;100.00;99948.88;5061195;28;20050;-72
2021/12/28 05:04:39;;;;;;;22.50;11.00;;;;;;;1.07;100.00;99962.84;5060769;28;20052;-72
2021/12/28 05:07:05;;;;;;;21.48;9.18;;;;;;;1.08;100.00;99961.91;5060525;28;20043;-72
2021/12/28 05:09:30;;;;;;;18.88;9.25;;;;;;;1.07;100.00;99952.28;5066244;28;20036;-72
2021/12/28 05:11:56;;;;;;;21.88;10.13;;;;;;;1.09;100.00;99952.19;5061301;28;20020;-72
2021/12/28 05:14:21;;;;;;;23.50;10.65;;;;;;;1.10;100.00;99944.19;5064816;28;20029;-72
2021/12/28 05:16:47;;;;;;;21.23;9.98;;;;;;;1.09;100.00;99947.75;5062458;28;20029;-72
2021/12/28 05:19:14;;;;;;;27.77;11.85;;;;;;;1.10;100.00;99954.75;5065945;28;20032;-73
2021/12/28 05:21:40;;;;;;;23.48;11.50;;;;;;;1.08;100.00;99938.16;5061152;28;20025;-70
2021/12/28 05:24:06;;;;;;;21.75;10.38;;;;;;;1.08;100.00;99932.88;5060296;28;20066;-72
2021/12/28 05:26:31;;;;;;;22.92;10.57;;;;;;;1.09;100.00;99942.47;5057712;28;20059;-73
2021/12/28 05:28:57;;;;;;;27.15;11.95;;;;;;;0.98;100.00;99914.97;5061985;28;20082;-73
2021/12/28 05:31:25;;;;;;;20.05;9.98;;;;;;;1.02;100.00;99933.19;5060530;28;20028;-72
2021/12/28 05:33:52;;;;;;;22.05;9.82;;;;;;;1.08;100.00;99948.72;5045827;28;20449;-72
2021/12/28 05:36:18;;;;;;;19.42;9.77;;;;;;;0.99;100.00;99933.38;5047930;28;20377;-73
2021/12/28 05:38:44;;;;;;;20.40;9.10;;;;;;;0.93;100.00;99924.94;5058223;28;20117;-69
2021/12/28 05:41:09;;;;;;;19.42;9.38;;;;;;;0.98;100.00;99947.50;5040409;28;20564;-71
2021/12/28 05:43:35;;;;;;;23.15;9.95;;;;;;;1.05;100.00;99956.78;5065483;28;20476;-72
2021/12/28 05:46:00;;;;;;;22.67;10.45;;;;;;;1.00;100.00;99948.25;5062037;28;20020;-72
2021/12/28 05:48:26;;;;;;;25.65;10.75;;;;;;;1.03;100.00;99955.19;5063332;28;20040;-72
2021/12/28 05:50:52;;;;;;;22.80;10.73;;;;;;;1.04;100.00;99955.09;5062643;28;20398;-73
2021/12/28 05:53:17;;;;;;;27.90;11.98;;;;;;;0.96;100.00;99944.09;5063283;28;20037;-73
2021/12/28 05:55:44;;;;;;;26.00;11.73;;;;;;;1.01;100.00;99962.31;5061558;28;20027;-72
2021/12/28 05:58:10;;;;;;;26.50;11.70;;;;;;;1.04;100.00;99972.72;5058206;28;20031;-73
2021/12/28 06:00:37;;;;;;;24.55;11.38;;;;;;;1.02;100.00;99967.53;5046579;28;20051;-72
2021/12/28 06:03:02;;;;;;;30.67;14.32;;;;;;;1.01;100.00;99967.59;5041629;28;20475;-72
2021/12/28 06:05:28;;;;;;;24.98;11.45;;;;;;;1.01;100.00;99960.56;5061870;28;20043;-72
2021/12/28 06:07:54;;;;;;;21.77;10.43;;;;;;;0.97;100.00;99964.25;5059203;28;20393;-72
2021/12/28 06:10:20;;;;;;;22.05;9.55;;;;;;;0.98;100.00;99966.00;5062175;28;20477;-72
2021/12/28 06:12:45;;;;;;;23.77;11.10;;;;;;;0.96;100.00;99967.00;5058257;28;20477;-72
2021/12/28 06:15:12;;;;;;;20.13;9.43;;;;;;;1.02;100.00;99969.31;5063703;28;20095;-73
2021/12/28 06:17:38;;;;;;;17.35;8.38;;;;;;;0.98;100.00;99958.06;5063122;28;20032;-73
2021/12/28 06:20:05;;;;;;;16.40;8.07;;;;;;;1.05;100.00;99972.63;5056463;28;20029;-72
2021/12/28 06:22:31;;;;;;;16.10;8.10;;;;;;;1.02;100.00;99964.88;5057921;28;20097;-72
2021/12/28 06:24:56;;;;;;;15.63;7.43;;;;;;;1.04;100.00;99978.00;5057462;28;20028;-73
2021/12/28 06:27:22;;;;;;;14.80;7.30;;;;;;;1.03;100.00;99977.13;5060802;28;20518;-71
2021/12/28 06:29:47;;;;;;;19.63;8.80;;;;;;;1.00;100.00;99971.19;5065358;28;20036;-73
2021/12/28 06:32:13;;;;;;;17.40;8.50;;;;;;;1.04;100.00;99978.88;5064258;28;20481;-74
2021/12/28 06:34:38;;;;;;;19.00;8.23;;;;;;;1.04;100.00;99981.50;5059009;28;20473;-72
2021/12/28 06:37:04;;;;;;;15.85;8.00;;;;;;;1.07;100.00;99996.31;5059020;28;20539;-73
2021/12/28 06:39:30;;;;;;;16.55;8.55;;;;;;;1.02;100.00;99982.50;5060676;28;20048;-74
2021/12/28 06:41:56;;;;;;;20.05;9.48;;;;;;;1.05;100.00;99984.97;5057940;28;20036;-72
2021/12/28 06:44:22;;;;;;;17.05;9.18;;;;;;;1.01;100.00;99984.31;5059762;28;20028;-73
2021/12/28 06:46:47;;;;;;;16.02;7.78;;;;;;;1.08;100.00;99996.25;5061304;28;20031;-73
2021/12/28 06:49:14;;;;;;;17.77;9.02;;;;;;;1.13;100.00;100002.09;5058528;28;20481;-73
2021/12/28 06:51:39;;;;;;;20.98;9.57;;;;;;;1.07;100.00;99997.19;5065073;28;20389;-73
2021/12/28 06:54:05;;;;;;;20.40;9.13;;;;;;;1.07;100.00;100002.47;5059614;28;20037;-74
2021/12/28 06:56:31;;;;;;;21.95;10.30;;;;;;;1.06;100.00;100006.00;5062537;28;20677;-73
2021/12/28 06:58:57;;;;;;;22.77;9.32;;;;;;;1.07;100.00;99998.97;5042556;28;20033;-73
2021/12/28 07:01:23;;;;;;;22.15;11.50;;;;;;;1.11;100.00;100005.78;5062972;28;20025;-73
2021/12/28 07:03:50;;;;;;;24.90;11.85;;;;;;;1.09;100.00;100012.91;5062761;28;20036;-71
2021/12/28 07:06:16;;;;;;;25.13;11.48;;;;;;;1.01;100.00;99996.66;5059572;28;20044;-72
2021/12/28 07:08:43;;;;;;;26.35;11.27;;;;;;;1.09;100.00;100020.84;5058975;28;20124;-73
2021/12/28 07:11:08;;;;;;;26.02;11.15;;;;;;;1.05;100.00;100016.66;5057985;28;20020;-73
2021/12/28 07:13:34;;;;;;;26.60;11.82;;;;;;;1.04;100.00;100018.47;5059390;28;20063;-73
2021/12/28 07:16:00;;;;;;;23.25;11.10;;;;;;;1.04;100.00;100029.03;5046135;28;20021;-73
2021/12/28 07:18:26;;;;;;;25.05;12.10;;;;;;;1.06;100.00;100024.50;5062957;28;20025;-73
2021/12/28 07:20:51;;;;;;;27.33;12.38;;;;;;;1.04;100.00;100021.09;5044978;28;20024;-74
2021/12/28 07:23:17;;;;;;;28.52;11.40;;;;;;;1.07;100.00;100025.38;5062801;28;20508;-72
2021/12/28 07:25:43;;;;;;;28.58;12.55;;;;;;;1.08;100.00;100029.69;5057320;28;20096;-73
2021/12/28 07:28:09;;;;;;;30.88;13.43;;;;;;;1.03;100.00;100019.38;5060983;28;20379;-73
2021/12/28 07:30:34;;;;;;;29.10;13.10;;;;;;;1.06;100.00;100027.13;5057714;28;20029;-73
2021/12/28 07:33:00;;;;;;;27.80;13.73;;;;;;;1.04;100.00;100031.66;5060213;28;20547;-74
2021/12/28 07:35:25;;;;;;;29.38;12.05;;;;;;;1.07;100.00;100031.50;5065130;28;20071;-71
2021/12/28 07:37:53;;;;;;;28.98;12.30;;;;;;;1.04;100.00;100025.53;5060588;28;20028;-74
2021/12/28 07:40:19;;;;;;;34.60;13.55;;;;;;;1.05;100.00;100022.81;5058330;28;20034;-72
2021/12/28 07:42:44;;;;;;;36.13;13.02;;;;;;;1.05;100.00;100014.88;5059334;28;20432;-73
2021/12/28 07:45:12;;;;;;;33.35;13.90;;;;;;;1.01;100.00;100016.00;5058862;28;20025;-72
2021/12/28 07:47:39;;;;;;;31.33;14.40;;;;;;;1.06;100.00;100021.84;5060772;28;20424;-73
2021/12/28 07:50:07;;;;;;;34.53;14.57;;;;;;;1.05;100.00;100028.09;5060325;28;20039;-73
2021/12/28 07:52:33;;;;;;;31.05;13.93;;;;;;;1.02;100.00;100017.69;5060181;28;20439;-73
2021/12/28 07:54:59;;;;;;;38.58;15.57;;;;;;;1.00;100.00;100008.16;5059939;28;20025;-73
2021/12/28 07:57:24;;;;;;;33.80;14.60;;;;;;;1.01;100.00;100016.00;5044065;28;20031;-73
2021/12/28 07:59:50;;;;;;;38.30;16.33;;;;;;;1.06;100.00;100024.50;5047943;28;20081;-72
2021/12/28 08:02:15;;;;;;;36.67;17.25;;;;;;;1.02;100.00;100019.47;5040241;28;20081;-73
2021/12/28 08:04:41;;;;;;;38.17;16.27;;;;;;;1.08;100.00;100038.47;5059044;28;20021;-72
2021/12/28 08:07:06;;;;;;;34.72;15.95;;;;;;;1.07;100.00;100028.00;5063043;28;20056;-74
2021/12/28 08:09:32;;;;;;;34.22;15.40;;;;;;;1.03;100.00;100027.31;5066727;28;20032;-73
2021/12/28 08:11:57;;;;;;;34.80;15.55;;;;;;;1.01;100.00;100010.72;5064393;28;20409;-72
2021/12/28 08:14:23;;;;;;;40.95;16.77;;;;;;;1.09;100.00;100016.41;5047089;28;20025;-73
2021/12/28 08:16:48;;;;;;;37.20;16.88;;;;;;;1.11;100.00;100024.25;5065920;28;20093;-72
2021/12/28 08:19:14;;;;;;;42.13;16.27;;;;;;;1.09;100.00;100024.34;5064483;28;20035;-74
2021/12/28 08:21:40;;;;;;;40.92;17.95;;;;;;;1.10;100.00;100018.09;5046217;28;20105;-74
2021/12/28 08:24:06;;;;;;;42.97;18.25;;;;;;;1.08;100.00;100021.78;5061493;28;20366;-73
2021/12/28 08:26:31;;;;;;;38.63;17.95;;;;;;;1.09;100.00;100031.41;5066702;28;20056;-74
2021/12/28 08:28:57;;;;;;;44.58;17.85;;;;;;;1.11;100.00;100033.03;5064127;28;20028;-73
2021/12/28 08:31:22;;;;;;;39.30;17.17;;;;;;;1.07;100.00;100018.31;5041959;28;20071;-74
2021/12/28 08:33:48;;;;;;;45.42;18.50;;;;;;;1.10;100.00;100026.03;5062864;28;20539;-74
2021/12/28 08:36:13;;;;;;;40.15;15.75;;;;;;;1.10;100.00;100030.47;5045928;28;20024;-74
2021/12/28 08:38:39;;;;;;;45.70;17.70;;;;;;;1.13;100.00;100023.22;5062836;28;20111;-74
2021/12/28 08:41:05;;;;;;;45.90;20.08;;;;;;;1.17;100.00;100024.78;5064505;28;20379;-75
2021/12/28 08:43:31;;;;;;;50.78;23.80;;;;;;;1.20;100.00;100032.56;5046294;28;20028;-75
2021/12/28 08:45:57;;;;;;;40.40;17.88;;;;;;;1.24;100.00;100042.00;5063092;28;20024;-73
2021/12/28 08:48:23;;;;;;;37.65;16.80;;;;;;;1.25;100.00;100043.69;5066318;28;20453;-73
2021/12/28 08:50:50;;;;;;;43.90;20.65;;;;;;;1.25;100.00;100038.41;5063566;28;20350;-73
2021/12/28 08:53:15;;;;;;;48.28;20.52;;;;;;;1.28;100.00;100038.25;5063627;28;20029;-73
2021/12/28 08:55:41;;;;;;;48.97;19.58;;;;;;;1.29;100.00;100037.31;5063084;28;20033;-73
2021/12/28 08:58:07;;;;;;;45.60;18.88;;;;;;;1.26;100.00;100028.72;5063155;28;20040;-74
2021/12/28 09:00:35;;;;;;;47.58;19.77;;;;;;;1.27;100.00;100031.28;5063298;28;20021;-72
2021/12/28 09:03:01;;;;;;;43.88;17.80;;;;;;;1.26;100.00;100034.00;5058401;28;20017;-72
2021/12/28 09:05:28;;;;;;;43.83;18.80;;;;;;;1.32;100.00;100039.78;5062100;28;20135;-73
2021/12/28 09:07:54;;;;;;;42.75;18.77;;;;;;;1.31;100.00;100048.66;5061485;28;20039;-73
2021/12/28 09:10:21;;;;;;;49.22;19.27;;;;;;;1.36;100.00;100059.81;5060467;28;20036;-73
2021/12/28 09:12:47;;;;;;;40.55;17.92;;;;;;;1.36;100.00;100045.75;5065831;28;20094;-73
2021/12/28 09:15:12;;;;;;;47.60;21.17;;;;;;;1.37;100.00;100037.75;5060021;28;20025;-72
2021/12/28 09:17:39;;;;;;;46.30;20.98;;;;;;;1.36;100.00;100032.56;5059922;28;20029;-73
2021/12/28 09:20:12;;;;;;;37.28;18.08;;;;;;;1.39;100.00;100043.78;5059954;28;20263;-73
2021/12/28 09:22:38;;;;;;;38.67;17.90;;;;;;;1.40;100.00;100050.78;5065133;28;20078;-73
2021/12/28 09:25:04;;;;;;;29.58;14.63;;;;;;;1.41;100.00;100041.06;5041254;28;20270;-73
2021/12/28 09:27:30;;;;;;;26.60;14.35;;;;;;;1.37;100.00;100043.03;5061970;28;20025;-73
2021/12/28 09:29:55;;;;;;;30.02;15.00;;;;;;;1.35;100.00;100017.66;5059248;28;20067;-73
2021/12/28 09:32:21;;;;;;;40.15;16.23;;;;;;;1.41;100.00;100020.78;5062369;28;20028;-74
2021/12/28 09:34:50;;;;;;;30.83;14.20;;;;;;;1.49;100.00;100029.13;5064186;28;20028;-73
2021/12/28 09:37:16;;;;;;;25.02;12.57;;;;;;;1.46;100.00;100031.97;5062953;28;20051;-74
2021/12/28 09:39:43;;;;;;;30.15;13.80;;;;;;;1.46;100.00;100023.19;5065444;28;20037;-73
2021/12/28 09:42:09;;;;;;;41.85;18.45;;;;;;;1.49;100.00;100020.38;5063874;28;20075;-73
2021/12/28 09:44:35;;;;;;;37.10;15.13;;;;;;;1.49;100.00;100023.00;5059650;28;20087;-74
2021/12/28 09:47:03;;;;;;;31.33;15.10;;;;;;;1.52;100.00;100033.41;5060995;28;20029;-74
2021/12/28 09:49:29;;;;;;;27.85;13.45;;;;;;;1.53;100.00;100027.19;5062854;28;20040;-73
2021/12/28 09:51:56;;;;;;;25.70;11.98;;;;;;;1.54;100.00;100031.53;5038869;28;20127;-74
2021/12/28 09:54:26;;;;;;;31.35;13.80;;;;;;;1.55;100.00;100025.31;5054403;28;20504;-73
2021/12/28 09:56:55;;;;;;;28.40;13.18;;;;;;;1.56;100.00;100027.00;5034228;28;20029;-74
2021/12/28 09:59:21;;;;;;;20.40;10.90;;;;;;;1.52;100.00;100007.00;5060110;28;20366;-74
2021/12/28 10:01:47;;;;;;;23.98;11.27;;;;;;;1.56;100.00;100019.94;5053799;28;20032;-74
2021/12/28 10:04:12;;;;;;;18.88;9.48;;;;;;;1.61;100.00;100020.53;5066876;28;20020;-73
2021/12/28 10:06:38;;;;;;;22.75;11.77;;;;;;;1.60;100.00;100002.97;5069381;28;20386;-73
2021/12/28 10:09:14;;;;;;;22.90;11.80;;;;;;;1.65;100.00;100015.94;5054445;28;20204;-73
2021/12/28 10:11:49;;;;;;;24.30;10.50;;;;;;;1.69;100.00;100018.31;5067990;28;20071;-72
2021/12/28 10:14:14;;;;;;;23.08;11.75;;;;;;;1.70;100.00;100017.38;5053963;28;20025;-73
2021/12/28 10:16:46;;;;;;;23.65;11.23;;;;;;;1.67;100.00;99996.41;5043569;28;20040;-73
2021/12/28 10:19:37;;;;;;;20.75;10.30;;;;;;;1.68;100.00;100013.94;5071247;28;20028;-73
2021/12/28 10:22:39;;;;;;;18.17;10.40;;;;;;;1.67;100.00;100006.09;5057349;28;20020;-72
2021/12/28 10:25:18;;;;;;;25.92;11.00;;;;;;;1.71;100.00;100013.78;5064514;28;20365;-72
2021/12/28 10:27:59;;;;;;;20.13;10.20;;;;;;;1.70;100.00;100011.22;5062134;28;20035;-72
2021/12/28 10:30:28;;;;;;;21.77;10.70;;;;;;;1.70;100.00;100005.94;5061503;28;20037;-73
2021/12/28 10:32:59;;;;;;;25.73;11.82;;;;;;;1.70;100.00;100020.00;5062502;28;20074;-72
2021/12/28 10:35:31;;;;;;;24.80;11.35;;;;;;;1.65;100.00;100008.84;5054658;28;20031;-72
2021/12/28 10:38:00;;;;;;;24.70;11.30;;;;;;;1.69;100.00;100015.69;5067699;28;20036;-72
2021/12/28 10:40:38;;;;;;;21.65;10.95;;;;;;;1.65;100.00;100003.56;5051513;28;20032;-72
2021/12/28 10:43:09;;;;;;;30.55;12.15;;;;;;;1.67;100.00;100000.81;5062918;28;20113;-72
2021/12/28 10:45:47;;;;;;;21.75;10.93;;;;;;;1.67;100.00;100003.47;5061782;28;20021;-72
2021/12/28 10:48:17;;;;;;;22.48;11.10;;;;;;;1.68;100.00;99994.63;5056632;28;20516;-73
2021/12/28 10:50:49;;;;;;;25.83;10.90;;;;;;;1.67;100.00;99996.41;5057564;28;20029;-73
2021/12/28 10:53:18;;;;;;;26.50;12.13;;;;;;;1.64;100.00;99993.06;5058195;28;20032;-72
2021/12/28 10:55:45;;;;;;;26.48;11.15;;;;;;;1.63;100.00;99986.94;5037768;28;20021;-73
2021/12/28 10:58:26;;;;;;;22.02;10.20;;;;;;;1.67;100.00;99977.91;5063450;28;20036;-73
2021/12/28 11:00:53;;;;;;;29.63;14.63;;;;;;;1.54;100.00;99954.88;5055667;28;20028;-72
2021/12/28 11:03:26;;;;;;;22.60;11.95;;;;;;;1.61;100.00;99967.66;5039610;28;20393;-71
2021/12/28 11:05:54;;;;;;;18.35;9.38;;;;;;;1.67;100.00;99980.53;5034136;28;20041;-72
2021/12/28 11:08:22;;;;;;;21.33;11.80;;;;;;;1.69;100.00;99981.31;5059727;28;20105;-72
2021/12/28 11:10:51;;;;;;;25.70;17.73;;;;;;;1.63;100.00;99963.16;5060108;28;20032;-73
2021/12/28 11:13:23;;;;;;;22.63;12.88;;;;;;;1.69;100.00;99973.38;5041008;28;20476;-72
2021/12/28 11:15:48;;;;;;;23.30;11.52;;;;;;;1.68;100.00;99978.75;5054783;28;20025;-72